Time;durP1;ratioP1;P1;durP2;ratioP2;P2;SDS_P1;SDS_P2;PMS_P1;PMS_P2;Temp;Humidity;BMP_temperature;BMP_pressure;BME280_temperature;BME280_humidity;BME280_pressure;Samples;Min_cycle;Max_cycle;Signal;HPM_P1;HPM_P2
2023/08/19 00:01:07;;;;;;;7.25;6.65;;;24.60;99.90;;;;;;5083483;28;20391;-35
2023/08/19 00:03:33;;;;;;;7.63;7.03;;;24.60;99.90;;;;;;5072793;28;20135;-39
2023/08/19 00:06:11;;;;;;;7.43;6.82;;;24.60;99.90;;;;;;5079710;28;20027;-37
2023/08/19 00:08:40;;;;;;;7.93;7.22;;;24.60;99.90;;;;;;5073040;28;20067;-37
2023/08/19 00:11:08;;;;;;;8.50;7.65;;;24.60;99.90;;;;;;5078071;28;20093;-34
2023/08/19 00:13:34;;;;;;;7.88;7.18;;;24.60;99.90;;;;;;5069920;28;20063;-36
2023/08/19 00:15:59;;;;;;;8.40;7.60;;;24.60;99.90;;;;;;5067476;28;20372;-35
2023/08/19 00:18:25;;;;;;;8.10;7.40;;;24.50;99.90;;;;;;5068529;28;20465;-36
2023/08/19 00:20:51;;;;;;;8.60;7.80;;;24.50;99.90;;;;;;5071166;28;20029;-38
2023/08/19 00:23:17;;;;;;;8.30;7.55;;;24.50;99.90;;;;;;5064595;28;20060;-37
2023/08/19 00:25:43;;;;;;;8.23;7.53;;;24.50;99.90;;;;;;5073423;28;20116;-36
2023/08/19 00:28:09;;;;;;;7.85;7.15;;;24.50;99.90;;;;;;5066358;28;20442;-36
2023/08/19 00:30:41;;;;;;;8.32;7.63;;;24.50;99.90;;;;;;5076195;28;20052;-36
2023/08/19 00:33:09;;;;;;;8.70;7.90;;;24.50;99.90;;;;;;5080056;28;20028;-36
2023/08/19 00:35:34;;;;;;;9.40;8.43;;;24.50;99.90;;;;;;5074809;28;20100;-36
2023/08/19 00:38:00;;;;;;;8.23;7.55;;;24.40;99.90;;;;;;5068461;28;20123;-35
2023/08/19 00:40:25;;;;;;;8.48;7.68;;;24.40;99.90;;;;;;5070730;28;20028;-37
2023/08/19 00:42:51;;;;;;;8.70;7.90;;;24.40;99.90;;;;;;5074114;28;20031;-36
2023/08/19 00:45:17;;;;;;;9.20;8.40;;;24.40;99.90;;;;;;5077170;28;20040;-35
2023/08/19 00:47:42;;;;;;;8.65;7.95;;;24.40;99.90;;;;;;5078720;28;21073;-37
2023/08/19 00:50:15;;;;;;;8.32;7.63;;;24.40;99.90;;;;;;5071520;28;20036;-35
2023/08/19 00:52:44;;;;;;;8.52;7.82;;;24.40;99.90;;;;;;5063258;28;20395;-35
2023/08/19 00:55:10;;;;;;;8.95;8.15;;;24.40;99.90;;;;;;5069258;28;20055;-35
2023/08/19 00:57:37;;;;;;;8.20;7.50;;;24.40;99.90;;;;;;5079706;28;20032;-37
2023/08/19 01:00:04;;;;;;;8.63;7.93;;;24.40;99.90;;;;;;5075691;28;20354;-35
2023/08/19 01:02:30;;;;;;;8.27;7.68;;;24.40;99.90;;;;;;5077855;28;20103;-35
2023/08/19 01:04:56;;;;;;;9.27;8.48;;;24.30;99.90;;;;;;5079348;28;20034;-34
2023/08/19 01:07:43;;;;;;;9.68;8.88;;;24.30;99.90;;;;;;5061877;28;20048;-37
2023/08/19 01:10:15;;;;;;;9.35;8.55;;;24.30;99.90;;;;;;5067633;28;20059;-35
2023/08/19 01:12:44;;;;;;;8.77;8.00;;;24.30;99.90;;;;;;5075729;28;20035;-36
2023/08/19 01:15:23;;;;;;;9.38;8.57;;;24.30;99.90;;;;;;5077492;28;20198;-35
2023/08/19 01:17:50;;;;;;;8.68;7.88;;;24.20;99.90;;;;;;5074901;28;20595;-36
2023/08/19 01:20:19;;;;;;;10.07;8.93;;;24.20;99.90;;;;;;5076354;28;20032;-35
2023/08/19 01:23:05;;;;;;;9.32;8.48;;;24.20;99.90;;;;;;5071498;28;20077;-35
2023/08/19 01:25:31;;;;;;;9.10;8.30;;;24.20;99.90;;;;;;5066664;28;20028;-34
2023/08/19 01:28:02;;;;;;;9.70;8.80;;;24.20;99.90;;;;;;5074146;28;20793;-35
2023/08/19 01:30:30;;;;;;;9.60;8.60;;;24.20;99.90;;;;;;5067931;28;20017;-35
2023/08/19 01:32:59;;;;;;;9.13;8.32;;;24.20;99.90;;;;;;5077476;28;20031;-35
2023/08/19 01:35:25;;;;;;;8.98;8.07;;;24.20;99.90;;;;;;5067058;28;20024;-36
2023/08/19 01:38:29;;;;;;;10.48;9.50;;;24.20;99.90;;;;;;5084903;28;20039;-36
2023/08/19 01:40:57;;;;;;;9.50;8.65;;;24.20;99.90;;;;;;5080459;28;20432;-36
2023/08/19 01:43:23;;;;;;;9.85;8.95;;;24.10;99.90;;;;;;5077418;28;20555;-37
2023/08/19 01:45:49;;;;;;;9.85;8.93;;;24.20;99.90;;;;;;5085635;28;20035;-35
2023/08/19 01:48:14;;;;;;;9.52;8.73;;;24.20;99.90;;;;;;5068706;28;20476;-35
2023/08/19 01:50:40;;;;;;;10.05;9.15;;;24.20;99.90;;;;;;5074213;28;20467;-34
2023/08/19 01:53:05;;;;;;;10.30;9.40;;;24.10;99.90;;;;;;5076979;28;20033;-35
2023/08/19 01:55:31;;;;;;;9.68;8.85;;;24.20;99.90;;;;;;5073323;28;20146;-36
2023/08/19 01:57:57;;;;;;;9.65;8.77;;;24.10;99.90;;;;;;5079118;28;20736;-34
2023/08/19 02:00:24;;;;;;;13.40;10.15;;;24.10;99.90;;;;;;5084886;28;20051;-38
2023/08/19 02:02:49;;;;;;;10.23;9.32;;;24.10;99.90;;;;;;5079114;28;20024;-36
2023/08/19 02:05:15;;;;;;;10.88;9.88;;;24.10;99.90;;;;;;5065216;28;20502;-36
2023/08/19 02:07:41;;;;;;;10.35;9.35;;;24.10;99.90;;;;;;5075660;28;20020;-35
2023/08/19 02:10:11;;;;;;;11.43;10.40;;;24.10;99.90;;;;;;5076556;28;20024;-34
2023/08/19 02:12:37;;;;;;;11.73;10.63;;;24.00;99.90;;;;;;5073648;28;20032;-35
2023/08/19 02:15:03;;;;;;;10.50;9.40;;;24.00;99.90;;;;;;5074287;28;20050;-37
2023/08/19 02:17:28;;;;;;;10.63;9.73;;;24.00;99.90;;;;;;5068490;28;20486;-36
2023/08/19 02:19:54;;;;;;;12.13;11.02;;;24.00;99.90;;;;;;5068983;28;20033;-34
2023/08/19 02:22:21;;;;;;;10.48;9.57;;;24.00;99.90;;;;;;5077224;28;20077;-36
2023/08/19 02:24:47;;;;;;;11.55;10.35;;;24.00;99.90;;;;;;5072222;28;20055;-36
2023/08/19 02:27:13;;;;;;;11.15;10.15;;;24.00;99.90;;;;;;5077188;28;20641;-36
2023/08/19 02:29:38;;;;;;;12.00;10.85;;;24.00;99.90;;;;;;5075936;28;20161;-36
2023/08/19 02:32:04;;;;;;;11.98;10.88;;;24.10;99.90;;;;;;5064984;28;20024;-36
2023/08/19 02:34:30;;;;;;;11.38;10.38;;;24.10;99.90;;;;;;5069992;28;20025;-36
2023/08/19 02:36:55;;;;;;;10.93;9.93;;;24.10;99.90;;;;;;5084875;28;20027;-35
2023/08/19 02:39:27;;;;;;;11.50;10.40;;;24.10;99.90;;;;;;5067999;28;20036;-36
2023/08/19 02:41:52;;;;;;;11.13;10.03;;;24.20;99.90;;;;;;5065754;28;20528;-35
2023/08/19 02:44:18;;;;;;;10.73;9.48;;;24.20;99.90;;;;;;5077542;28;20416;-35
2023/08/19 02:46:43;;;;;;;10.65;9.65;;;24.20;99.90;;;;;;5064899;28;20024;-35
2023/08/19 02:49:09;;;;;;;10.93;9.82;;;24.20;99.90;;;;;;5074417;28;20035;-36
2023/08/19 02:51:34;;;;;;;10.73;9.70;;;24.20;99.90;;;;;;5066756;28;20134;-35
2023/08/19 02:54:00;;;;;;;10.90;9.90;;;24.20;99.90;;;;;;5067216;28;20080;-36
2023/08/19 02:56:26;;;;;;;10.85;9.85;;;24.20;99.90;;;;;;5080006;28;20066;-34
2023/08/19 02:58:51;;;;;;;10.27;9.38;;;24.20;99.90;;;;;;5079393;28;20032;-35
2023/08/19 03:01:17;;;;;;;10.65;9.65;;;24.20;99.90;;;;;;5076436;28;20047;-35
2023/08/19 03:03:44;;;;;;;11.23;10.23;;;24.20;99.90;;;;;;5081753;28;20564;-36
2023/08/19 03:06:12;;;;;;;10.05;9.18;;;24.20;99.90;;;;;;5074418;28;20035;-36
2023/08/19 03:08:41;;;;;;;11.40;10.38;;;24.20;99.90;;;;;;5079971;28;20761;-36
2023/08/19 03:11:06;;;;;;;9.95;9.05;;;24.20;99.90;;;;;;5081310;28;20032;-36
2023/08/19 03:13:32;;;;;;;10.38;9.48;;;24.20;99.90;;;;;;5082494;28;20026;-36
2023/08/19 03:15:59;;;;;;;10.25;9.30;;;24.20;99.90;;;;;;5075327;28;20399;-36
2023/08/19 03:18:25;;;;;;;10.63;9.63;;;24.20;99.90;;;;;;5067742;28;20031;-36
2023/08/19 03:20:58;;;;;;;10.18;9.27;;;24.20;99.90;;;;;;5071775;28;20027;-37
2023/08/19 03:23:25;;;;;;;10.48;9.38;;;24.20;99.90;;;;;;5084767;28;20047;-36
2023/08/19 03:25:51;;;;;;;9.88;8.98;;;24.20;99.90;;;;;;5072007;28;20154;-34
2023/08/19 03:28:16;;;;;;;9.88;8.98;;;24.20;99.90;;;;;;5083593;28;20612;-36
2023/08/19 03:30:42;;;;;;;10.07;9.07;;;24.20;99.90;;;;;;5079397;28;20056;-39
2023/08/19 03:33:07;;;;;;;11.35;10.10;;;24.20;99.90;;;;;;5062489;28;20032;-36
2023/08/19 03:35:34;;;;;;;9.38;8.57;;;24.20;99.90;;;;;;5071466;28;20027;-36
2023/08/19 03:38:00;;;;;;;10.10;9.20;;;24.20;99.90;;;;;;5065056;28;20027;-36
2023/08/19 03:40:26;;;;;;;10.13;9.13;;;24.20;99.90;;;;;;5070976;28;20062;-36
2023/08/19 03:42:51;;;;;;;10.48;8.35;;;24.20;99.90;;;;;;5068817;28;20442;-36
2023/08/19 03:45:17;;;;;;;9.55;8.65;;;24.20;99.90;;;;;;5066874;28;20490;-35
2023/08/19 03:47:45;;;;;;;9.43;8.52;;;24.20;99.90;;;;;;5072069;28;20036;-35
2023/08/19 03:50:11;;;;;;;9.98;8.98;;;24.20;99.90;;;;;;5064789;28;20096;-35
2023/08/19 03:52:37;;;;;;;9.25;8.45;;;24.20;99.90;;;;;;5078758;28;20046;-36
2023/08/19 03:55:02;;;;;;;9.43;8.63;;;24.20;99.90;;;;;;5081244;28;20139;-36
2023/08/19 03:57:28;;;;;;;10.25;9.15;;;24.20;99.90;;;;;;5073780;28;20093;-36
2023/08/19 03:59:54;;;;;;;9.82;8.88;;;24.20;99.90;;;;;;5064639;28;20113;-36
2023/08/19 04:02:19;;;;;;;9.88;8.98;;;24.20;99.90;;;;;;5072127;28;20441;-37
2023/08/19 04:05:03;;;;;;;9.50;8.55;;;24.20;99.90;;;;;;5083443;28;20036;-36
2023/08/19 04:07:28;;;;;;;9.20;8.35;;;24.20;99.90;;;;;;5071878;28;20020;-35
2023/08/19 04:09:55;;;;;;;8.73;7.93;;;24.20;99.90;;;;;;5082789;28;20092;-36
2023/08/19 04:12:27;;;;;;;9.27;8.38;;;24.20;99.90;;;;;;5076801;28;20545;-36
2023/08/19 04:14:53;;;;;;;;;;;24.20;99.90;;;;;;5064060;28;20024;-36
2023/08/19 04:17:19;;;;;;;8.13;7.43;;;24.20;99.90;;;;;;5074834;28;20036;-35
2023/08/19 04:19:45;;;;;;;9.30;8.50;;;24.20;99.90;;;;;;5063768;28;20116;-36
2023/08/19 04:22:15;;;;;;;8.40;7.68;;;24.20;99.90;;;;;;5072334;28;20036;-35
2023/08/19 04:24:41;;;;;;;7.40;6.70;;;24.20;99.90;;;;;;5065244;28;20072;-46
2023/08/19 04:27:07;;;;;;;8.63;7.72;;;24.20;99.90;;;;;;5066888;28;20517;-36
2023/08/19 04:29:35;;;;;;;8.50;7.80;;;24.20;99.90;;;;;;5083642;28;20170;-35
2023/08/19 04:32:04;;;;;;;8.85;7.90;;;24.20;99.90;;;;;;5070827;28;20016;-42
2023/08/19 04:34:30;;;;;;;8.13;7.43;;;24.20;99.90;;;;;;5069641;28;20035;-35
2023/08/19 04:36:56;;;;;;;8.93;8.02;;;24.20;99.90;;;;;;5069853;28;20044;-36
2023/08/19 04:39:23;;;;;;;7.18;6.47;;;24.20;99.90;;;;;;5070803;28;20063;-36
2023/08/19 04:41:49;;;;;;;7.93;7.13;;;24.20;99.90;;;;;;5076751;28;20756;-35
2023/08/19 04:44:18;;;;;;;9.02;7.00;;;24.20;99.90;;;;;;5070138;28;20035;-35
2023/08/19 04:46:44;;;;;;;7.68;7.00;;;24.20;99.90;;;;;;5073662;28;20063;-35
2023/08/19 04:49:09;;;;;;;8.27;7.47;;;24.20;99.90;;;;;;5064239;28;20074;-35
2023/08/19 04:51:35;;;;;;;7.63;6.93;;;24.20;99.90;;;;;;5075723;28;20020;-35
2023/08/19 04:54:01;;;;;;;7.57;6.88;;;24.20;99.90;;;;;;5075692;28;20152;-35
2023/08/19 04:56:27;;;;;;;7.35;6.68;;;24.20;99.90;;;;;;5070016;28;20037;-35
2023/08/19 04:58:52;;;;;;;8.27;6.70;;;24.30;99.90;;;;;;5077064;28;20028;-36
2023/08/19 05:01:18;;;;;;;7.75;6.63;;;24.30;99.90;;;;;;5073816;28;20023;-35
2023/08/19 05:03:43;;;;;;;7.20;6.50;;;24.30;99.90;;;;;;5075593;28;20037;-34
2023/08/19 05:06:09;;;;;;;6.93;6.22;;;24.30;99.90;;;;;;5084028;28;20043;-43
2023/08/19 05:08:35;;;;;;;8.93;6.90;;;24.30;99.90;;;;;;5077617;28;20037;-35
2023/08/19 05:11:00;;;;;;;7.88;7.07;;;24.30;99.90;;;;;;5068293;28;20035;-35
2023/08/19 05:13:26;;;;;;;6.70;6.05;;;24.30;99.90;;;;;;5072705;28;20028;-34
2023/08/19 05:15:51;;;;;;;7.32;6.43;;;24.30;99.90;;;;;;5073480;28;20380;-34
2023/08/19 05:18:17;;;;;;;7.55;6.35;;;24.30;99.90;;;;;;5072944;28;20084;-36
2023/08/19 05:20:43;;;;;;;6.90;6.30;;;24.30;99.90;;;;;;5075686;28;20024;-36
2023/08/19 05:23:08;;;;;;;6.97;6.10;;;24.30;99.90;;;;;;5067093;28;20024;-36
2023/08/19 05:25:34;;;;;;;6.68;6.13;;;24.30;99.90;;;;;;5078534;28;20059;-36
2023/08/19 05:28:00;;;;;;;7.22;6.53;;;24.30;99.90;;;;;;5066543;28;20560;-36
2023/08/19 05:30:28;;;;;;;6.65;5.53;;;24.40;99.90;;;;;;5078332;28;20107;-36
2023/08/19 05:32:54;;;;;;;7.20;6.32;;;24.40;99.90;;;;;;5066923;28;20025;-37
2023/08/19 05:35:20;;;;;;;7.07;6.38;;;24.40;99.90;;;;;;5077350;28;20028;-35
2023/08/19 05:37:48;;;;;;;7.05;6.38;;;24.40;99.90;;;;;;5066625;28;20032;-37
2023/08/19 05:40:14;;;;;;;7.50;6.78;;;24.40;99.90;;;;;;5078093;28;20020;-35
2023/08/19 05:42:39;;;;;;;6.97;6.28;;;24.40;99.90;;;;;;5065482;28;20066;-35
2023/08/19 05:45:05;;;;;;;6.90;6.20;;;24.50;99.90;;;;;;5076790;28;20043;-35
2023/08/19 05:47:34;;;;;;;6.97;6.05;;;24.40;99.90;;;;;;5072428;28;20179;-36
2023/08/19 05:50:00;;;;;;;7.10;6.22;;;24.40;99.90;;;;;;5083396;28;20467;-35
2023/08/19 05:52:25;;;;;;;7.65;6.53;;;24.40;99.90;;;;;;5080480;28;20081;-44
2023/08/19 05:54:51;;;;;;;6.63;6.10;;;24.40;99.90;;;;;;5078685;28;20098;-35
2023/08/19 05:57:17;;;;;;;6.30;5.70;;;24.40;99.90;;;;;;5064369;28;20027;-36
2023/08/19 05:59:42;;;;;;;6.22;5.63;;;24.40;99.90;;;;;;5078535;28;20098;-35
2023/08/19 06:02:08;;;;;;;6.05;5.35;;;24.30;99.90;;;;;;5074014;28;20046;-35
2023/08/19 06:04:33;;;;;;;7.25;5.45;;;24.30;99.90;;;;;;5084272;28;20039;-36
2023/08/19 06:06:59;;;;;;;5.97;5.38;;;24.40;99.90;;;;;;5065637;28;20027;-36
2023/08/19 06:09:25;;;;;;;5.45;4.95;;;24.40;99.90;;;;;;5075158;28;20957;-36
2023/08/19 06:11:52;;;;;;;6.68;4.82;;;24.40;99.90;;;;;;5076495;28;20024;-36
2023/08/19 06:14:21;;;;;;;6.70;6.00;;;24.50;99.90;;;;;;5065156;28;20028;-37
2023/08/19 06:16:47;;;;;;;5.18;4.68;;;24.50;99.90;;;;;;5073068;28;20020;-37
2023/08/19 06:19:13;;;;;;;7.53;5.50;;;24.60;99.90;;;;;;5083511;28;20586;-39
2023/08/19 06:21:39;;;;;;;5.50;4.80;;;24.70;99.90;;;;;;5073385;28;20021;-35
2023/08/19 06:24:05;;;;;;;6.63;5.13;;;24.70;99.90;;;;;;5084907;28;20039;-36
2023/08/19 06:26:31;;;;;;;5.22;4.72;;;24.80;99.90;;;;;;5074367;28;20029;-36
2023/08/19 06:28:57;;;;;;;4.93;4.43;;;24.80;99.90;;;;;;5084034;28;20039;-36
2023/08/19 06:31:23;;;;;;;4.55;4.15;;;24.90;99.90;;;;;;5074895;28;20055;-36
2023/08/19 06:33:50;;;;;;;5.63;4.72;;;24.90;99.90;;;;;;5082565;28;20500;-37
2023/08/19 06:36:21;;;;;;;7.15;4.78;;;25.00;99.90;;;;;;5077885;28;20524;-37
2023/08/19 06:38:53;;;;;;;4.65;4.25;;;24.90;99.90;;;;;;5080450;28;20020;-36
2023/08/19 06:41:19;;;;;;;6.05;4.70;;;25.00;99.90;;;;;;5079615;28;20016;-37
2023/08/19 06:43:47;;;;;;;5.32;4.50;;;25.00;99.90;;;;;;5066361;28;20039;-37
2023/08/19 06:46:13;;;;;;;5.13;4.57;;;25.00;99.90;;;;;;5067539;28;20027;-37
2023/08/19 06:48:39;;;;;;;5.63;5.03;;;25.00;99.90;;;;;;5074260;28;20028;-37
2023/08/19 06:51:06;;;;;;;5.32;4.50;;;25.00;99.90;;;;;;5065925;28;20017;-37
2023/08/19 06:53:32;;;;;;;5.03;4.40;;;25.00;99.90;;;;;;5075746;28;20053;-36
2023/08/19 06:56:20;;;;;;;5.70;4.22;;;25.00;99.90;;;;;;5075381;28;20139;-37
2023/08/19 06:58:52;;;;;;;4.60;4.20;;;25.10;99.90;;;;;;5065972;28;20369;-37
2023/08/19 07:01:24;;;;;;;4.03;3.58;;;25.10;99.90;;;;;;5080288;28;20026;-36
2023/08/19 07:03:53;;;;;;;3.38;3.17;;;25.10;99.90;;;;;;5074894;28;20063;-36
2023/08/19 07:06:25;;;;;;;4.40;3.33;;;25.20;99.90;;;;;;5063974;28;20032;-35
2023/08/19 07:08:50;;;;;;;4.13;3.70;;;25.20;99.90;;;;;;5075012;28;20375;-35
2023/08/19 07:11:16;;;;;;;3.72;3.25;;;25.30;99.90;;;;;;5067661;28;20202;-36
2023/08/19 07:13:43;;;;;;;4.28;3.25;;;25.30;99.90;;;;;;5075925;28;20024;-35
2023/08/19 07:16:12;;;;;;;3.63;3.25;;;25.40;99.90;;;;;;5065718;28;20734;-35
2023/08/19 07:18:40;;;;;;;3.90;3.50;;;25.40;99.90;;;;;;5077290;28;20020;-36
2023/08/19 07:21:11;;;;;;;3.75;3.08;;;25.40;99.90;;;;;;5063652;28;20077;-35
2023/08/19 07:23:41;;;;;;;3.80;3.45;;;25.50;99.90;;;;;;5075956;28;20165;-37
2023/08/19 07:26:08;;;;;;;5.82;3.83;;;25.50;99.90;;;;;;5063367;28;20101;-36
2023/08/19 07:28:35;;;;;;;3.67;3.35;;;25.60;99.90;;;;;;5068372;28;20029;-41
2023/08/19 07:31:04;;;;;;;3.05;2.80;;;25.60;99.90;;;;;;5083490;28;20123;-38
2023/08/19 07:33:30;;;;;;;2.95;2.63;;;25.80;99.90;;;;;;5077903;28;20812;-34
2023/08/19 07:35:59;;;;;;;2.83;2.63;;;25.80;99.90;;;;;;5065212;28;20032;-36
2023/08/19 07:38:25;;;;;;;3.53;3.22;;;25.80;99.90;;;;;;5070189;28;20054;-36
2023/08/19 07:40:50;;;;;;;3.50;3.20;;;25.80;99.90;;;;;;5067928;28;20464;-35
2023/08/19 07:43:16;;;;;;;2.83;2.60;;;25.80;99.90;;;;;;5067624;28;20694;-36
2023/08/19 07:45:41;;;;;;;2.88;2.67;;;25.80;99.90;;;;;;5071116;28;20116;-36
2023/08/19 07:48:07;;;;;;;3.00;2.80;;;25.80;99.90;;;;;;5064014;28;20044;-35
2023/08/19 07:50:32;;;;;;;2.72;2.35;;;25.80;99.90;;;;;;5075878;28;20027;-37
2023/08/19 07:52:58;;;;;;;3.05;2.78;;;25.80;99.90;;;;;;5081247;28;20502;-36
2023/08/19 07:55:24;;;;;;;3.30;3.00;;;25.80;99.90;;;;;;5071085;28;20479;-36
2023/08/19 07:57:49;;;;;;;2.58;2.38;;;25.80;99.90;;;;;;5083055;28;20042;-36
2023/08/19 08:00:15;;;;;;;2.97;2.42;;;25.80;99.90;;;;;;5070273;28;20795;-37
2023/08/19 08:02:41;;;;;;;3.10;2.80;;;25.90;99.90;;;;;;5081952;28;20386;-36
2023/08/19 08:05:07;;;;;;;2.85;2.63;;;26.00;99.90;;;;;;5068159;28;20037;-37
2023/08/19 08:07:33;;;;;;;2.80;2.60;;;26.00;99.90;;;;;;5081209;28;20039;-36
2023/08/19 08:09:58;;;;;;;2.00;1.90;;;26.10;99.90;;;;;;5073871;28;20087;-35
2023/08/19 08:12:24;;;;;;;2.10;1.80;;;26.10;99.90;;;;;;5083055;28;20028;-35
2023/08/19 08:14:52;;;;;;;2.60;2.40;;;26.20;99.90;;;;;;5077352;28;20028;-36
2023/08/19 08:17:18;;;;;;;3.50;3.03;;;26.20;99.90;;;;;;5065225;28;20072;-35
2023/08/19 08:19:44;;;;;;;3.20;2.90;;;26.30;99.90;;;;;;5069181;28;20145;-36
2023/08/19 08:22:09;;;;;;;3.40;3.10;;;26.30;99.90;;;;;;5067855;28;20085;-35
2023/08/19 08:24:35;;;;;;;3.70;3.08;;;26.30;99.90;;;;;;5070363;28;20040;-36
2023/08/19 08:27:04;;;;;;;4.35;2.95;;;26.30;99.90;;;;;;5069498;28;20109;-35
2023/08/19 08:29:32;;;;;;;2.63;2.42;;;26.30;99.90;;;;;;5080896;28;20024;-36
2023/08/19 08:31:58;;;;;;;2.80;2.60;;;26.40;99.90;;;;;;5071756;28;20101;-36
2023/08/19 08:34:23;;;;;;;2.83;2.58;;;26.60;99.90;;;;;;5072089;28;20024;-36
2023/08/19 08:36:49;;;;;;;3.13;2.75;;;26.70;99.90;;;;;;5082164;28;20024;-36
2023/08/19 08:39:17;;;;;;;2.80;2.58;;;26.80;99.90;;;;;;5082686;28;20103;-37
2023/08/19 08:41:48;;;;;;;3.10;2.40;;;27.00;99.90;;;;;;5082368;28;20471;-36
2023/08/19 08:44:13;;;;;;;3.03;2.72;;;27.10;99.90;;;;;;5072953;28;20118;-37
2023/08/19 08:46:40;;;;;;;6.10;4.05;;;27.20;99.90;;;;;;5072464;28;20061;-37
2023/08/19 08:49:07;;;;;;;4.40;3.70;;;27.20;99.90;;;;;;5085372;28;20028;-36
2023/08/19 08:51:39;;;;;;;5.03;4.57;;;27.30;99.90;;;;;;5074236;28;20554;-36
2023/08/19 08:54:06;;;;;;;4.70;4.30;;;27.40;99.90;;;;;;5086976;28;20071;-36
2023/08/19 08:56:32;;;;;;;4.70;3.67;;;27.40;99.90;;;;;;5083289;28;20483;-35
2023/08/19 08:58:58;;;;;;;3.70;3.38;;;27.40;99.90;;;;;;5075522;28;20031;-36
2023/08/19 09:01:26;;;;;;;3.45;3.15;;;27.50;99.90;;;;;;5082229;28;20032;-37
2023/08/19 09:04:03;;;;;;;3.90;3.60;;;27.40;99.90;;;;;;5069925;28;20048;-35
2023/08/19 09:06:29;;;;;;;3.13;2.83;;;27.40;99.90;;;;;;5073500;28;20480;-37
2023/08/19 09:09:03;;;;;;;3.28;2.72;;;27.40;99.90;;;;;;5075900;28;20078;-36
2023/08/19 09:11:34;;;;;;;3.08;2.88;;;27.30;99.90;;;;;;5077079;28;20012;-37
2023/08/19 09:14:12;;;;;;;3.78;3.47;;;27.30;99.90;;;;;;5084654;28;20035;-35
2023/08/19 09:16:41;;;;;;;4.18;2.85;;;27.30;99.90;;;;;;5078814;28;20160;-35
2023/08/19 09:19:06;;;;;;;4.03;3.65;;;27.30;99.90;;;;;;5076959;28;20059;-37
2023/08/19 09:21:32;;;;;;;4.15;3.75;;;27.20;99.90;;;;;;5082230;28;20059;-36
2023/08/19 09:24:01;;;;;;;3.55;3.25;;;27.30;99.90;;;;;;5074495;28;20029;-35
2023/08/19 09:26:26;;;;;;;3.22;2.92;;;27.30;99.90;;;;;;5067144;28;20021;-37
2023/08/19 09:28:57;;;;;;;5.20;3.85;;;27.30;99.90;;;;;;5076092;28;20028;-37
2023/08/19 09:31:24;;;;;;;3.95;3.65;;;27.30;99.90;;;;;;5067925;28;20016;-36
2023/08/19 09:33:53;;;;;;;4.78;4.38;;;27.30;99.90;;;;;;5076515;28;20028;-36
2023/08/19 09:36:23;;;;;;;4.95;4.47;;;27.20;99.90;;;;;;5067150;28;20019;-37
2023/08/19 09:38:53;;;;;;;4.68;4.20;;;27.10;99.90;;;;;;5073980;28;20031;-37
2023/08/19 09:41:27;;;;;;;4.90;3.70;;;27.10;99.90;;;;;;5083224;28;20045;-36
2023/08/19 09:43:57;;;;;;;4.22;3.90;;;27.00;99.90;;;;;;5073437;28;20040;-36
2023/08/19 09:46:33;;;;;;;3.92;3.63;;;27.00;99.90;;;;;;5079299;28;20828;-42
2023/08/19 09:48:59;;;;;;;4.20;3.80;;;27.00;99.90;;;;;;5073847;28;20070;-43
2023/08/19 09:51:27;;;;;;;4.47;3.47;;;27.10;99.90;;;;;;5086587;28;20024;-43
2023/08/19 09:53:53;;;;;;;4.47;4.07;;;27.20;99.90;;;;;;5073082;28;20049;-43
2023/08/19 09:56:24;;;;;;;4.35;3.95;;;27.30;99.90;;;;;;5085700;28;20058;-43
2023/08/19 09:58:51;;;;;;;4.40;4.10;;;27.50;99.90;;;;;;5081330;28;20036;-43
2023/08/19 10:01:18;;;;;;;4.60;4.20;;;27.60;99.90;;;;;;5085637;28;20274;-43
2023/08/19 10:03:43;;;;;;;4.75;4.30;;;27.70;99.90;;;;;;5074366;28;20178;-43
2023/08/19 10:06:11;;;;;;;4.97;4.47;;;27.80;99.90;;;;;;5084279;28;20073;-43
2023/08/19 10:08:40;;;;;;;5.82;5.38;;;28.00;99.90;;;;;;5076539;28;20028;-44
2023/08/19 10:11:07;;;;;;;4.93;4.53;;;28.10;99.90;;;;;;5070028;28;20020;-44
2023/08/19 10:13:37;;;;;;;4.88;4.47;;;28.30;99.90;;;;;;5072042;28;20099;-44
2023/08/19 10:16:06;;;;;;;5.70;4.85;;;28.30;99.90;;;;;;5068846;28;20438;-43
2023/08/19 10:18:36;;;;;;;5.20;4.80;;;28.50;99.90;;;;;;5070738;28;20544;-44
2023/08/19 10:21:05;;;;;;;5.90;5.40;;;28.50;99.90;;;;;;5070505;28;20585;-44
2023/08/19 10:23:36;;;;;;;6.32;5.72;;;28.60;99.90;;;;;;5067105;28;20630;-43
2023/08/19 10:26:01;;;;;;;6.53;5.85;;;28.60;99.90;;;;;;5071939;28;20024;-43
2023/08/19 10:28:30;;;;;;;6.95;5.63;;;28.60;99.90;;;;;;5066129;28;20031;-43
2023/08/19 10:31:15;;;;;;;8.65;7.75;;;28.60;99.90;;;;;;5074734;28;20111;-43
2023/08/19 10:33:46;;;;;;;8.05;7.35;;;28.50;99.90;;;;;;5067375;28;20021;-43
2023/08/19 10:36:16;;;;;;;7.32;6.63;;;28.50;99.90;;;;;;5074761;28;20043;-43
2023/08/19 10:38:51;;;;;;;6.68;6.07;;;28.50;99.90;;;;;;5066072;28;20024;-44
2023/08/19 10:41:28;;;;;;;6.72;6.20;;;28.50;99.90;;;;;;5068239;28;20659;-44
2023/08/19 10:44:04;;;;;;;5.50;4.97;;;28.60;99.90;;;;;;5076615;28;20040;-43
2023/08/19 10:46:36;;;;;;;6.90;6.18;;;28.60;99.90;;;;;;5072525;28;20029;-44
2023/08/19 10:49:03;;;;;;;7.43;6.78;;;28.70;99.90;;;;;;5072577;28;20107;-44
2023/08/19 10:52:03;;;;;;;9.23;8.25;;;28.60;99.90;;;;;;5076076;28;20083;-44
2023/08/19 10:54:40;;;;;;;8.98;8.07;;;28.50;99.90;;;;;;5057346;28;20072;-44
2023/08/19 10:57:22;;;;;;;9.50;7.85;;;28.50;99.90;;;;;;5076699;28;20032;-44
2023/08/19 10:59:53;;;;;;;9.88;8.82;;;28.40;99.90;;;;;;5072245;28;20763;-44
2023/08/19 11:02:18;;;;;;;8.32;7.35;;;28.40;99.90;;;;;;5071320;28;20447;-44
2023/08/19 11:04:50;;;;;;;7.28;6.68;;;28.40;99.90;;;;;;5066708;28;20037;-44
2023/08/19 11:07:20;;;;;;;8.63;7.78;;;28.50;99.90;;;;;;5084202;28;20039;-44
2023/08/19 11:09:48;;;;;;;8.43;7.63;;;28.60;99.90;;;;;;5069193;28;20111;-44
2023/08/19 11:12:21;;;;;;;8.75;7.93;;;28.70;99.90;;;;;;5073918;28;20684;-44
2023/08/19 11:14:52;;;;;;;10.43;9.52;;;28.90;99.90;;;;;;5083274;28;20020;-44
2023/08/19 11:17:25;;;;;;;8.95;8.15;;;29.00;99.90;;;;;;5072875;28;20074;-44
2023/08/19 11:19:51;;;;;;;10.52;9.43;;;29.00;99.90;;;;;;5076649;28;20036;-43
2023/08/19 11:22:17;;;;;;;10.05;9.25;;;29.00;99.90;;;;;;5074911;28;20028;-43
2023/08/19 11:24:45;;;;;;;12.88;10.02;;;29.10;99.90;;;;;;5065324;28;20043;-42
2023/08/19 11:27:12;;;;;;;11.90;10.70;;;29.00;99.90;;;;;;5074409;28;20103;-42
2023/08/19 11:29:44;;;;;;;10.02;9.15;;;29.00;99.90;;;;;;5070239;28;20035;-43
2023/08/19 11:32:16;;;;;;;10.18;9.18;;;28.90;99.90;;;;;;5074319;28;20108;-43
2023/08/19 11:34:44;;;;;;;9.68;8.68;;;28.90;99.90;;;;;;5063009;28;20037;-43
2023/08/19 11:37:10;;;;;;;10.48;9.48;;;28.80;99.90;;;;;;5074938;28;20035;-44
2023/08/19 11:39:35;;;;;;;9.57;8.60;;;28.70;99.90;;;;;;5064579;28;20028;-44
2023/08/19 11:42:02;;;;;;;9.10;8.35;;;28.60;99.90;;;;;;5068333;28;20275;-44
2023/08/19 11:44:31;;;;;;;9.00;8.20;;;28.50;99.90;;;;;;5083695;28;20130;-43
2023/08/19 11:46:57;;;;;;;8.02;7.32;;;28.40;99.90;;;;;;5073658;28;20020;-43
2023/08/19 11:49:25;;;;;;;7.88;7.25;;;28.30;99.90;;;;;;5080447;28;20096;-43
2023/08/19 11:51:51;;;;;;;7.78;7.07;;;28.30;99.90;;;;;;5076193;28;20486;-44
2023/08/19 11:54:17;;;;;;;7.38;6.68;;;28.30;99.90;;;;;;5076441;28;20058;-45
2023/08/19 11:56:50;;;;;;;8.70;7.50;;;28.30;99.90;;;;;;5079218;28;20017;-43
2023/08/19 11:59:29;;;;;;;9.55;7.00;;;28.30;99.90;;;;;;5076115;28;20028;-43
2023/08/19 12:01:56;;;;;;;8.85;7.22;;;28.30;99.90;;;;;;5078479;28;20025;-43
2023/08/19 12:04:22;;;;;;;7.38;6.65;;;28.20;99.90;;;;;;5076255;28;20406;-43
2023/08/19 12:06:49;;;;;;;5.95;5.45;;;28.10;99.90;;;;;;5081040;28;20038;-44
2023/08/19 12:09:18;;;;;;;6.50;5.90;;;28.10;99.90;;;;;;5071780;28;20034;-44
2023/08/19 12:11:47;;;;;;;6.22;5.72;;;28.00;99.90;;;;;;5081504;28;20021;-43
2023/08/19 12:14:13;;;;;;;6.38;5.78;;;28.00;99.90;;;;;;5071495;28;20077;-43
2023/08/19 12:16:38;;;;;;;5.75;5.25;;;27.80;99.90;;;;;;5081585;28;20024;-43
2023/08/19 12:19:04;;;;;;;6.97;5.43;;;27.80;99.90;;;;;;5071424;28;20034;-43
2023/08/19 12:21:29;;;;;;;6.50;5.90;;;27.80;99.90;;;;;;5084023;28;20031;-43
2023/08/19 12:23:55;;;;;;;5.78;5.28;;;27.70;99.90;;;;;;5070396;28;20054;-43
2023/08/19 12:26:21;;;;;;;6.35;5.80;;;27.70;99.90;;;;;;5082915;28;20047;-43
2023/08/19 12:28:47;;;;;;;7.68;6.80;;;27.70;99.90;;;;;;5070898;28;20133;-42
2023/08/19 12:31:13;;;;;;;6.82;6.07;;;27.70;99.90;;;;;;5082539;28;20016;-42
2023/08/19 12:33:41;;;;;;;6.90;5.80;;;27.60;99.90;;;;;;5079139;28;20039;-43
2023/08/19 12:36:08;;;;;;;5.22;4.72;;;27.60;99.90;;;;;;5062653;28;20111;-43
2023/08/19 12:38:33;;;;;;;5.88;5.22;;;27.50;99.90;;;;;;5070135;28;20024;-43
2023/08/19 12:40:59;;;;;;;6.40;5.80;;;27.50;99.90;;;;;;5078416;28;20031;-44
2023/08/19 12:43:25;;;;;;;5.28;4.80;;;27.50;99.90;;;;;;5075844;28;20418;-43
2023/08/19 12:45:50;;;;;;;4.40;4.00;;;27.50;99.90;;;;;;5077016;28;20028;-43
2023/08/19 12:48:16;;;;;;;5.30;4.80;;;27.50;99.90;;;;;;5080345;28;20035;-42